createdAt,value
2023-03-05T00:00:33.281Z,1.34
2023-03-05T00:01:23.267Z,1.34
2023-03-05T00:02:13.326Z,1.35
2023-03-05T00:03:03.249Z,1.32
2023-03-05T00:03:53.334Z,1.34
2023-03-05T00:04:43.230Z,1.34
2023-03-05T00:05:33.219Z,1.34
2023-03-05T00:06:23.227Z,1.34
2023-03-05T00:07:13.200Z,1.34
2023-03-05T00:08:03.208Z,1.34
2023-03-05T00:08:53.180Z,1.32
2023-03-05T00:09:43.189Z,1.34
2023-03-05T00:10:33.156Z,1.34
2023-03-05T00:11:23.146Z,1.34
2023-03-05T00:12:13.147Z,1.32
2023-03-05T00:13:03.137Z,1.32
2023-03-05T00:13:53.110Z,1.34
2023-03-05T00:14:43.146Z,1.32
2023-03-05T00:15:33.111Z,1.34
2023-03-05T00:16:23.176Z,1.32
2023-03-05T00:17:13.087Z,1.32
2023-03-05T00:18:03.093Z,1.34
2023-03-05T00:18:53.057Z,1.32
2023-03-05T00:19:43.052Z,1.34
2023-03-05T00:20:33.049Z,1.34
2023-03-05T00:21:23.056Z,1.32
2023-03-05T00:22:13.042Z,1.34
2023-03-05T00:23:03.034Z,1.34
2023-03-05T00:23:53.026Z,1.34
2023-03-05T00:24:43.006Z,1.35
2023-03-05T00:25:32.987Z,1.35
2023-03-05T00:26:23.042Z,1.35
2023-03-05T00:27:12.979Z,1.36
2023-03-05T00:28:02.990Z,1.36
2023-03-05T00:28:52.961Z,1.35
2023-03-05T00:29:42.958Z,1.35
2023-03-05T00:30:32.933Z,1.36
2023-03-05T00:31:23.075Z,1.38
2023-03-05T00:32:12.959Z,1.35
2023-03-05T00:33:02.937Z,1.35
2023-03-05T00:33:52.925Z,1.34
2023-03-05T00:34:42.900Z,1.34
2023-03-05T00:35:34.595Z,1.32
2023-03-05T00:36:22.910Z,1.32
2023-03-05T00:37:12.891Z,1.31
2023-03-05T00:38:02.867Z,1.31
2023-03-05T00:38:52.852Z,1.29
2023-03-05T00:39:42.858Z,1.28
2023-03-05T00:40:32.895Z,1.26
2023-03-05T00:41:22.833Z,1.26
2023-03-05T00:42:12.822Z,1.25
2023-03-05T00:43:02.811Z,1.24
2023-03-05T00:43:52.794Z,1.25
2023-03-05T00:44:42.807Z,1.24
2023-03-05T00:45:32.785Z,1.21
2023-03-05T00:46:22.765Z,1.21
2023-03-05T00:47:12.755Z,1.21
2023-03-05T00:48:02.732Z,1.21
2023-03-05T00:48:52.748Z,1.21
2023-03-05T00:49:42.730Z,1.21
2023-03-05T00:50:32.722Z,1.21
2023-03-05T00:51:22.696Z,1.21
2023-03-05T00:52:12.686Z,1.24
2023-03-05T00:53:02.716Z,1.21
2023-03-05T00:53:52.687Z,1.21
2023-03-05T00:54:42.681Z,1.20
2023-03-05T00:55:32.659Z,1.18
2023-03-05T00:56:22.673Z,1.17
2023-03-05T00:57:12.671Z,1.18
2023-03-05T00:58:02.662Z,1.21
2023-03-05T00:58:52.645Z,1.21
2023-03-05T00:59:42.614Z,1.20
2023-03-05T01:00:32.620Z,1.18
2023-03-05T01:01:22.723Z,1.20
2023-03-05T01:02:12.604Z,1.18
2023-03-05T01:03:02.595Z,1.18
2023-03-05T01:03:52.587Z,1.18
2023-03-05T01:04:42.565Z,1.17
2023-03-05T01:05:32.665Z,1.17
2023-03-05T01:06:22.551Z,1.17
2023-03-05T01:07:12.544Z,1.17
2023-03-05T01:08:02.524Z,1.14
2023-03-05T01:08:52.499Z,1.16
2023-03-05T01:09:42.501Z,1.13
2023-03-05T01:10:32.480Z,1.14
2023-03-05T01:11:22.487Z,1.11
2023-03-05T01:12:12.472Z,1.10
2023-03-05T01:13:02.477Z,1.08
2023-03-05T01:13:52.446Z,1.10
2023-03-05T01:14:42.475Z,1.08
2023-03-05T01:15:32.445Z,1.07
2023-03-05T01:16:22.465Z,1.07
2023-03-05T01:17:12.413Z,1.08
2023-03-05T01:18:02.415Z,1.07
2023-03-05T01:18:52.390Z,1.06
2023-03-05T01:19:42.380Z,1.06
2023-03-05T01:20:32.380Z,1.04
2023-03-05T01:21:22.383Z,1.04
2023-03-05T01:22:12.335Z,1.02
2023-03-05T01:23:02.361Z,1.04
2023-03-05T01:23:52.337Z,1.04
2023-03-05T01:24:42.325Z,1.02
2023-03-05T01:25:32.337Z,1.04
2023-03-05T01:26:22.316Z,1.02
2023-03-05T01:27:12.298Z,1.00
2023-03-05T01:28:02.287Z,1.00
2023-03-05T01:28:52.296Z,1.00
2023-03-05T01:29:42.267Z,0.99
2023-03-05T01:30:32.268Z,0.96
2023-03-05T01:31:22.281Z,0.95
2023-03-05T01:32:12.303Z,0.92
2023-03-05T01:33:02.240Z,0.90
2023-03-05T01:33:52.229Z,0.89
2023-03-05T01:34:42.230Z,0.88
2023-03-05T01:35:32.244Z,0.88
2023-03-05T01:36:22.211Z,0.84
2023-03-05T01:37:12.184Z,0.81
2023-03-05T01:38:02.169Z,0.78
2023-03-05T01:38:52.185Z,0.77
2023-03-05T01:39:42.170Z,0.74
2023-03-05T01:40:32.160Z,0.71
2023-03-05T01:41:22.155Z,0.71
2023-03-05T01:42:12.141Z,0.70
2023-03-05T01:43:02.144Z,0.72
2023-03-05T01:43:52.101Z,0.72
2023-03-05T01:44:42.113Z,0.74
2023-03-05T01:45:32.137Z,0.75
2023-03-05T01:46:22.111Z,0.74
2023-03-05T01:47:12.072Z,0.74
2023-03-05T01:48:02.071Z,0.74
2023-03-05T01:48:52.073Z,0.74
2023-03-05T01:49:42.099Z,0.74
2023-03-05T01:50:32.030Z,0.77
2023-03-05T01:51:22.075Z,0.77
2023-03-05T01:52:12.031Z,0.78
2023-03-05T01:53:02.013Z,0.78
2023-03-05T01:53:52.008Z,0.80
2023-03-05T01:54:42.019Z,0.80
2023-03-05T01:55:31.963Z,0.78
2023-03-05T01:56:22.016Z,0.78
2023-03-05T01:57:11.967Z,0.78
2023-03-05T01:58:01.956Z,0.81
2023-03-05T01:58:51.947Z,0.81
2023-03-05T01:59:41.939Z,0.82
2023-03-05T02:00:31.942Z,0.84
2023-03-05T02:01:21.988Z,0.84
2023-03-05T02:02:11.915Z,0.84
2023-03-05T02:03:01.908Z,0.84
2023-03-05T02:03:51.918Z,0.88
2023-03-05T02:04:41.894Z,0.86
2023-03-05T02:05:31.884Z,0.86
2023-03-05T02:06:21.900Z,0.86
2023-03-05T02:07:11.843Z,0.88
2023-03-05T02:08:01.893Z,0.89
2023-03-05T02:08:51.830Z,0.89
2023-03-05T02:09:41.851Z,0.90
2023-03-05T02:10:31.812Z,0.92
2023-03-05T02:11:21.820Z,0.90
2023-03-05T02:12:11.812Z,0.89
2023-03-05T02:13:01.811Z,0.89
2023-03-05T02:13:51.803Z,0.90
2023-03-05T02:14:41.785Z,0.90
2023-03-05T02:15:31.764Z,0.89
2023-03-05T02:16:21.781Z,0.89
2023-03-05T02:17:11.785Z,0.90
2023-03-05T02:18:01.749Z,0.92
2023-03-05T02:18:51.744Z,0.90
2023-03-05T02:19:41.731Z,0.92
2023-03-05T02:20:31.694Z,0.90
2023-03-05T02:21:21.726Z,0.90
2023-03-05T02:22:11.710Z,0.90
2023-03-05T02:23:01.683Z,0.92
2023-03-05T02:23:51.693Z,0.92
2023-03-05T02:24:41.686Z,0.92
2023-03-05T02:25:31.662Z,0.92
2023-03-05T02:26:21.663Z,0.92
2023-03-05T02:27:11.643Z,0.93
2023-03-05T02:28:01.632Z,0.93
2023-03-05T02:28:51.623Z,0.93
2023-03-05T02:29:41.650Z,0.90
2023-03-05T02:30:31.611Z,0.89
2023-03-05T02:31:21.617Z,0.90
2023-03-05T02:32:11.655Z,0.90
2023-03-05T02:33:01.602Z,0.90
2023-03-05T02:33:51.586Z,0.92
2023-03-05T02:34:41.571Z,0.90
2023-03-05T02:35:31.588Z,0.90
2023-03-05T02:36:21.552Z,0.90
2023-03-05T02:37:11.549Z,0.90
2023-03-05T02:38:01.536Z,0.93
2023-03-05T02:38:51.517Z,0.93
2023-03-05T02:39:41.519Z,0.93
2023-03-05T02:40:31.485Z,0.92
2023-03-05T02:41:21.479Z,0.93
2023-03-05T02:42:11.469Z,0.93
2023-03-05T02:43:01.496Z,0.93
2023-03-05T02:43:51.466Z,0.93
2023-03-05T02:44:41.483Z,0.93
2023-03-05T02:45:31.445Z,0.92
2023-03-05T02:46:21.444Z,0.92
2023-03-05T02:47:11.440Z,0.92
2023-03-05T02:48:01.409Z,0.93
2023-03-05T02:48:51.398Z,0.93
2023-03-05T02:49:41.402Z,0.93
2023-03-05T02:50:31.382Z,0.92
2023-03-05T02:51:21.388Z,0.92
2023-03-05T02:52:11.358Z,0.92
2023-03-05T02:53:01.380Z,0.93
2023-03-05T02:53:51.349Z,0.93
2023-03-05T02:54:41.413Z,0.93
2023-03-05T02:55:31.348Z,0.93
2023-03-05T02:56:21.328Z,0.93
2023-03-05T02:57:11.313Z,0.96
2023-03-05T02:58:01.346Z,0.93
2023-03-05T02:58:51.300Z,0.93
2023-03-05T02:59:41.321Z,0.93
2023-03-05T03:00:31.298Z,0.95
2023-03-05T03:01:21.357Z,0.93
2023-03-05T03:02:11.262Z,0.93
2023-03-05T03:03:01.323Z,0.93
2023-03-05T03:03:51.246Z,0.92
2023-03-05T03:04:41.232Z,0.93
2023-03-05T03:05:31.235Z,0.95
2023-03-05T03:06:21.224Z,0.93
2023-03-05T03:07:11.199Z,0.93
2023-03-05T03:08:01.213Z,0.93
2023-03-05T03:08:51.184Z,0.93
2023-03-05T03:09:41.206Z,0.92
2023-03-05T03:10:31.146Z,0.89
2023-03-05T03:11:21.171Z,0.92
2023-03-05T03:12:11.158Z,0.90
2023-03-05T03:13:01.289Z,0.89
2023-03-05T03:13:51.148Z,0.90
2023-03-05T03:14:41.132Z,0.88
2023-03-05T03:15:31.133Z,0.86
2023-03-05T03:16:21.137Z,0.86
2023-03-05T03:17:11.102Z,0.88
2023-03-05T03:18:01.108Z,0.86
2023-03-05T03:18:51.081Z,0.88
2023-03-05T03:19:41.079Z,0.86
2023-03-05T03:20:31.076Z,0.88
2023-03-05T03:21:21.048Z,0.88
2023-03-05T03:22:11.035Z,0.89
2023-03-05T03:23:01.028Z,0.88
2023-03-05T03:23:51.022Z,0.88
2023-03-05T03:24:41.096Z,0.89
2023-03-05T03:25:31.036Z,0.89
2023-03-05T03:26:21.003Z,0.90
2023-03-05T03:27:10.993Z,0.89
2023-03-05T03:28:00.995Z,0.89
2023-03-05T03:28:50.976Z,0.88
2023-03-05T03:29:40.964Z,0.89
2023-03-05T03:30:30.950Z,0.88
2023-03-05T03:31:20.984Z,0.88
2023-03-05T03:32:10.976Z,0.86
2023-03-05T03:33:00.936Z,0.86
2023-03-05T03:33:50.928Z,0.86
2023-03-05T03:34:40.907Z,0.84
2023-03-05T03:35:30.929Z,0.86
2023-03-05T03:36:20.913Z,0.86
2023-03-05T03:37:10.882Z,0.84
2023-03-05T03:38:00.868Z,0.84
2023-03-05T03:38:50.880Z,0.86
2023-03-05T03:39:40.854Z,0.86
2023-03-05T03:40:30.855Z,0.86
2023-03-05T03:41:20.846Z,0.86
2023-03-05T03:42:10.847Z,0.86
2023-03-05T03:43:00.845Z,0.89
2023-03-05T03:43:50.831Z,0.89
2023-03-05T03:44:40.802Z,0.89
2023-03-05T03:45:30.800Z,0.95
2023-03-05T03:46:20.949Z,0.89
2023-03-05T03:47:10.786Z,0.90
2023-03-05T03:48:00.755Z,0.90
2023-03-05T03:48:50.770Z,0.92
2023-03-05T03:49:40.761Z,0.90
2023-03-05T03:50:30.754Z,0.90
2023-03-05T03:51:20.728Z,0.95
2023-03-05T03:52:10.719Z,0.95
2023-03-05T03:53:00.719Z,0.93
2023-03-05T03:53:50.715Z,0.95
2023-03-05T03:54:40.692Z,0.95
2023-03-05T03:55:30.685Z,0.96
2023-03-05T03:56:20.662Z,0.96
2023-03-05T03:57:10.668Z,0.96
2023-03-05T03:58:00.664Z,0.96
2023-03-05T03:58:50.678Z,0.98
2023-03-05T03:59:40.673Z,0.99
2023-03-05T04:00:30.654Z,1.00
2023-03-05T04:01:20.619Z,0.99
2023-03-05T04:02:10.682Z,0.99
2023-03-05T04:03:00.593Z,0.99
2023-03-05T04:03:50.597Z,1.00
2023-03-05T04:04:40.597Z,0.99
2023-03-05T04:05:30.636Z,0.99
2023-03-05T04:06:20.555Z,1.00
2023-03-05T04:07:10.587Z,0.99
2023-03-05T04:08:00.565Z,0.99
2023-03-05T04:08:50.541Z,0.99
2023-03-05T04:09:40.540Z,0.98
2023-03-05T04:10:30.521Z,0.98
2023-03-05T04:11:20.500Z,0.98
2023-03-05T04:12:10.505Z,0.96
2023-03-05T04:13:00.499Z,0.98
2023-03-05T04:13:50.502Z,1.00
2023-03-05T04:14:40.473Z,0.95
2023-03-05T04:15:30.480Z,0.98
2023-03-05T04:16:20.517Z,0.96
2023-03-05T04:17:10.458Z,0.96
2023-03-05T04:18:00.439Z,0.96
2023-03-05T04:18:50.453Z,0.96
2023-03-05T04:19:40.415Z,0.95
2023-03-05T04:20:30.396Z,0.95
2023-03-05T04:21:20.414Z,0.93
2023-03-05T04:22:10.409Z,0.92
2023-03-05T04:23:00.367Z,0.93
2023-03-05T04:23:50.386Z,0.92
2023-03-05T04:24:40.379Z,0.92
2023-03-05T04:25:30.371Z,0.92
2023-03-05T04:26:20.349Z,0.93
2023-03-05T04:27:10.354Z,0.92
2023-03-05T04:28:00.338Z,0.92
2023-03-05T04:28:50.317Z,0.92
2023-03-05T04:29:40.322Z,0.92
2023-03-05T04:30:30.303Z,0.92
2023-03-05T04:31:20.476Z,0.93
2023-03-05T04:32:10.314Z,0.93
2023-03-05T04:33:00.272Z,0.93
2023-03-05T04:33:50.272Z,0.95
2023-03-05T04:34:40.256Z,0.95
2023-03-05T04:35:30.277Z,0.95
2023-03-05T04:36:20.226Z,0.93
2023-03-05T04:37:10.229Z,0.95
2023-03-05T04:38:00.230Z,0.96
2023-03-05T04:38:50.212Z,0.95
2023-03-05T04:39:40.195Z,0.96
2023-03-05T04:40:30.187Z,0.95
2023-03-05T04:41:20.200Z,0.95
2023-03-05T04:42:10.177Z,0.93
2023-03-05T04:43:00.156Z,0.90
2023-03-05T04:43:50.145Z,0.93
2023-03-05T04:44:40.152Z,0.92
2023-03-05T04:45:30.135Z,0.93
2023-03-05T04:46:20.132Z,0.93
2023-03-05T04:47:10.152Z,0.93
2023-03-05T04:48:00.107Z,0.93
2023-03-05T04:48:50.085Z,0.93
2023-03-05T04:49:40.105Z,0.93
2023-03-05T04:50:30.084Z,0.95
2023-03-05T04:51:20.072Z,0.93
2023-03-05T04:52:10.121Z,0.93
2023-03-05T04:53:00.089Z,0.93
2023-03-05T04:53:50.052Z,0.95
2023-03-05T04:54:40.057Z,0.93
2023-03-05T04:55:30.012Z,0.93
2023-03-05T04:56:20.021Z,0.92
2023-03-05T04:57:10.009Z,0.92
2023-03-05T04:57:59.971Z,0.93
2023-03-05T04:58:49.982Z,0.90
2023-03-05T04:59:39.988Z,0.93
2023-03-05T05:00:29.967Z,0.95
2023-03-05T05:01:19.974Z,0.93
2023-03-05T05:02:09.941Z,0.93
2023-03-05T05:02:59.986Z,0.93
2023-03-05T05:03:49.949Z,0.95
2023-03-05T05:04:39.938Z,0.95
2023-03-05T05:05:29.905Z,0.93
2023-03-05T05:06:19.911Z,0.93
2023-03-05T05:07:09.891Z,0.93
2023-03-05T05:07:59.883Z,0.93
2023-03-05T05:08:49.882Z,0.92
2023-03-05T05:09:39.882Z,0.93
2023-03-05T05:10:29.870Z,0.92
2023-03-05T05:11:19.849Z,0.92
2023-03-05T05:12:09.848Z,0.90
2023-03-05T05:12:59.850Z,0.92
2023-03-05T05:13:49.840Z,0.93
2023-03-05T05:14:39.819Z,0.92
2023-03-05T05:15:29.850Z,0.92
2023-03-05T05:16:19.846Z,0.90
2023-03-05T05:17:09.791Z,0.90
2023-03-05T05:17:59.785Z,0.90
2023-03-05T05:18:49.819Z,0.90
2023-03-05T05:19:39.819Z,0.89
2023-03-05T05:20:29.736Z,0.90
2023-03-05T05:21:19.761Z,0.89
2023-03-05T05:22:09.742Z,0.88
2023-03-05T05:22:59.718Z,0.89
2023-03-05T05:23:49.717Z,0.90
2023-03-05T05:24:39.717Z,0.90
2023-03-05T05:25:29.708Z,0.90
2023-03-05T05:26:19.687Z,0.90
2023-03-05T05:27:09.691Z,0.89
2023-03-05T05:27:59.678Z,0.90
2023-03-05T05:28:49.689Z,0.92
2023-03-05T05:29:39.653Z,0.92
2023-03-05T05:30:29.675Z,0.90
2023-03-05T05:31:19.665Z,0.92
2023-03-05T05:32:09.696Z,0.90
2023-03-05T05:32:59.617Z,0.92
2023-03-05T05:33:50.048Z,0.90
2023-03-05T05:34:39.612Z,0.90
2023-03-05T05:35:29.718Z,0.88
2023-03-05T05:36:19.588Z,0.89
2023-03-05T05:37:09.566Z,0.90
2023-03-05T05:37:59.555Z,0.89
2023-03-05T05:38:49.576Z,0.89
2023-03-05T05:39:39.537Z,0.89
2023-03-05T05:40:29.591Z,0.90
2023-03-05T05:41:19.517Z,0.89
2023-03-05T05:42:09.505Z,0.90
2023-03-05T05:42:59.488Z,0.89
2023-03-05T05:43:49.532Z,0.90
2023-03-05T05:44:39.498Z,0.90
2023-03-05T05:45:29.677Z,0.90
2023-03-05T05:46:19.615Z,0.92
2023-03-05T05:47:09.476Z,0.92
2023-03-05T05:47:59.473Z,0.92
2023-03-05T05:48:49.439Z,0.93
2023-03-05T05:49:39.457Z,0.92
2023-03-05T05:50:29.439Z,0.92
2023-03-05T05:51:19.440Z,0.93
2023-03-05T05:52:09.420Z,0.92
2023-03-05T05:52:59.423Z,0.92
2023-03-05T05:53:49.389Z,0.90
2023-03-05T05:54:39.384Z,0.90
2023-03-05T05:55:29.410Z,0.90
2023-03-05T05:56:19.386Z,0.88
2023-03-05T05:57:09.376Z,0.88
2023-03-05T05:57:59.348Z,0.88
2023-03-05T05:58:49.335Z,0.86
2023-03-05T05:59:39.332Z,0.86
2023-03-05T06:00:29.327Z,0.88
2023-03-05T06:01:19.315Z,0.86
2023-03-05T06:02:09.353Z,0.88
2023-03-05T06:02:59.334Z,0.88
2023-03-05T06:03:49.298Z,0.86
2023-03-05T06:04:39.276Z,0.88
2023-03-05T06:05:29.256Z,0.89
2023-03-05T06:06:19.269Z,0.89
2023-03-05T06:07:09.250Z,0.89
2023-03-05T06:07:59.255Z,0.89
2023-03-05T06:08:49.253Z,0.89
2023-03-05T06:09:39.223Z,0.89
2023-03-05T06:10:29.234Z,0.90
2023-03-05T06:11:19.582Z,0.90
2023-03-05T06:12:09.216Z,0.92
2023-03-05T06:12:59.204Z,0.92
2023-03-05T06:13:49.172Z,0.92
2023-03-05T06:14:39.178Z,0.90
2023-03-05T06:15:29.175Z,0.90
2023-03-05T06:16:19.189Z,0.92
2023-03-05T06:17:11.325Z,0.92
2023-03-05T06:17:59.154Z,0.92
2023-03-05T06:18:49.137Z,0.92
2023-03-05T06:19:39.114Z,0.92
2023-03-05T06:20:29.096Z,0.92
2023-03-05T06:21:19.108Z,0.92
2023-03-05T06:22:09.152Z,0.92
2023-03-05T06:22:59.090Z,0.90
2023-03-05T06:23:49.079Z,0.90
2023-03-05T06:24:39.052Z,0.89
2023-03-05T06:25:29.049Z,0.89
2023-03-05T06:26:19.044Z,0.89
2023-03-05T06:27:09.046Z,0.90
2023-03-05T06:27:59.022Z,0.90
2023-03-05T06:28:49.022Z,0.90
2023-03-05T06:29:39.010Z,0.90
2023-03-05T06:30:29.080Z,0.89
2023-03-05T06:31:18.965Z,0.90
2023-03-05T06:32:09.037Z,0.90
2023-03-05T06:32:58.992Z,0.90
2023-03-05T06:33:48.955Z,0.90
2023-03-05T06:34:38.979Z,0.90
2023-03-05T06:35:28.961Z,0.90
2023-03-05T06:36:18.936Z,0.90
2023-03-05T06:37:08.927Z,0.90
2023-03-05T06:37:58.922Z,0.89
2023-03-05T06:38:49.156Z,0.90
2023-03-05T06:39:38.885Z,0.90
2023-03-05T06:40:28.892Z,0.92
2023-03-05T06:41:18.873Z,0.90
2023-03-05T06:42:08.871Z,0.90
2023-03-05T06:42:58.869Z,0.90
2023-03-05T06:43:48.856Z,0.90
2023-03-05T06:44:38.837Z,0.90
2023-03-05T06:45:28.824Z,0.92
2023-03-05T06:46:18.976Z,0.89
2023-03-05T06:47:08.826Z,0.92
2023-03-05T06:47:58.804Z,0.90
2023-03-05T06:48:48.797Z,0.90
2023-03-05T06:49:38.796Z,0.92
2023-03-05T06:50:28.770Z,0.90
2023-03-05T06:51:18.781Z,0.93
2023-03-05T06:52:08.758Z,0.90
2023-03-05T06:52:58.752Z,0.95
2023-03-05T06:53:49.582Z,0.95
2023-03-05T06:54:38.738Z,0.96
2023-03-05T06:55:28.723Z,0.96
2023-03-05T06:56:18.723Z,0.98
2023-03-05T06:57:08.706Z,1.00
2023-03-05T06:57:58.719Z,1.00
2023-03-05T06:58:48.704Z,1.00
2023-03-05T06:59:38.708Z,1.00
2023-03-05T07:00:28.725Z,1.02
2023-03-05T07:01:18.713Z,1.02
2023-03-05T07:02:08.666Z,1.02
2023-03-05T07:02:58.644Z,1.04
2023-03-05T07:03:48.641Z,1.06
2023-03-05T07:04:38.633Z,1.06
2023-03-05T07:05:28.611Z,1.07
2023-03-05T07:06:18.617Z,1.08
2023-03-05T07:07:08.570Z,1.08
2023-03-05T07:07:58.622Z,1.10
2023-03-05T07:08:48.591Z,1.10
2023-03-05T07:09:38.568Z,1.10
2023-03-05T07:10:28.557Z,1.10
2023-03-05T07:11:18.575Z,1.11
2023-03-05T07:12:08.531Z,1.11
2023-03-05T07:12:58.531Z,1.10
2023-03-05T07:13:48.525Z,1.11
2023-03-05T07:14:38.517Z,1.10
2023-03-05T07:15:28.514Z,1.13
2023-03-05T07:16:18.564Z,1.11
2023-03-05T07:17:08.476Z,1.14
2023-03-05T07:17:58.484Z,1.13
2023-03-05T07:18:48.472Z,1.13
2023-03-05T07:19:38.464Z,1.14
2023-03-05T07:20:28.434Z,1.14
2023-03-05T07:21:18.463Z,1.14
2023-03-05T07:22:08.451Z,1.14
2023-03-05T07:22:58.420Z,1.17
2023-03-05T07:23:48.394Z,1.16
2023-03-05T07:24:38.422Z,1.17
2023-03-05T07:25:28.412Z,1.18
2023-03-05T07:26:18.392Z,1.20
2023-03-05T07:27:08.386Z,1.21
2023-03-05T07:27:58.380Z,1.21
2023-03-05T07:28:48.395Z,1.21
2023-03-05T07:29:38.368Z,1.24
2023-03-05T07:30:28.395Z,1.25
2023-03-05T07:31:18.372Z,1.24
2023-03-05T07:32:08.434Z,1.25
2023-03-05T07:32:58.334Z,1.24
2023-03-05T07:33:48.320Z,1.25
2023-03-05T07:34:38.332Z,1.26
2023-03-05T07:35:28.358Z,1.26
2023-03-05T07:36:18.295Z,1.28
2023-03-05T07:37:08.273Z,1.28
2023-03-05T07:37:58.279Z,1.28
2023-03-05T07:38:48.272Z,1.29
2023-03-05T07:39:38.271Z,1.29
2023-03-05T07:40:28.253Z,1.29
2023-03-05T07:41:18.228Z,1.29
2023-03-05T07:42:08.323Z,1.31
2023-03-05T07:42:58.202Z,1.32
2023-03-05T07:43:48.206Z,1.32
2023-03-05T07:44:38.210Z,1.35
2023-03-05T07:45:28.184Z,1.35
2023-03-05T07:46:18.208Z,1.35
2023-03-05T07:47:08.164Z,1.35
2023-03-05T07:47:58.153Z,1.36
2023-03-05T07:48:48.190Z,1.38
2023-03-05T07:49:38.133Z,1.39
2023-03-05T07:50:28.105Z,1.42
2023-03-05T07:51:18.126Z,1.42
2023-03-05T07:52:08.144Z,1.42
2023-03-05T07:52:58.125Z,1.42
2023-03-05T07:53:48.087Z,1.44
2023-03-05T07:54:38.060Z,1.44
2023-03-05T07:55:28.054Z,1.46
2023-03-05T07:56:18.092Z,1.46
2023-03-05T07:57:08.047Z,1.49
2023-03-05T07:57:58.021Z,1.50
2023-03-05T07:58:48.058Z,1.52
2023-03-05T07:59:38.038Z,1.52
2023-03-05T08:00:28.017Z,1.54
2023-03-05T08:01:18.024Z,1.56
2023-03-05T08:02:08.117Z,1.57
2023-03-05T08:02:57.982Z,1.61
2023-03-05T08:03:48.085Z,1.61
2023-03-05T08:04:37.980Z,1.63
2023-03-05T08:05:27.950Z,1.63
2023-03-05T08:06:17.964Z,1.65
2023-03-05T08:07:07.961Z,1.68
2023-03-05T08:07:57.940Z,1.68
2023-03-05T08:08:47.932Z,1.70
2023-03-05T08:09:37.943Z,1.70
2023-03-05T08:10:27.908Z,1.70
2023-03-05T08:11:17.908Z,1.72
2023-03-05T08:12:07.896Z,1.72
2023-03-05T08:12:57.901Z,1.75
2023-03-05T08:13:47.886Z,1.75
2023-03-05T08:14:37.854Z,1.79
2023-03-05T08:15:27.866Z,1.79
2023-03-05T08:16:17.914Z,1.82
2023-03-05T08:17:07.870Z,1.83
2023-03-05T08:17:57.829Z,1.86
2023-03-05T08:18:47.826Z,1.85
2023-03-05T08:19:37.824Z,1.86
2023-03-05T08:20:27.826Z,1.86
2023-03-05T08:21:17.786Z,1.89
2023-03-05T08:22:07.786Z,1.89
2023-03-05T08:22:57.795Z,1.92
2023-03-05T08:23:47.765Z,1.93
2023-03-05T08:24:37.748Z,1.95
2023-03-05T08:25:27.760Z,1.95
2023-03-05T08:26:17.743Z,1.98
2023-03-05T08:27:07.728Z,1.98
2023-03-05T08:27:57.724Z,2.00
2023-03-05T08:28:47.712Z,2.01
2023-03-05T08:29:37.717Z,2.00
2023-03-05T08:30:27.834Z,2.02
2023-03-05T08:31:17.747Z,2.02
2023-03-05T08:32:07.720Z,2.04
2023-03-05T08:32:57.686Z,2.07
2023-03-05T08:33:47.670Z,2.05
2023-03-05T08:34:37.643Z,2.09
2023-03-05T08:35:27.678Z,2.11
2023-03-05T08:36:17.636Z,2.12
2023-03-05T08:37:07.637Z,2.11
2023-03-05T08:37:57.607Z,2.11
2023-03-05T08:38:47.601Z,2.15
2023-03-05T08:39:37.625Z,2.15
2023-03-05T08:40:27.572Z,2.18
2023-03-05T08:41:17.577Z,2.19
2023-03-05T08:42:08.990Z,2.20
2023-03-05T08:42:57.549Z,2.23
2023-03-05T08:43:47.532Z,2.25
2023-03-05T08:44:37.546Z,2.26
2023-03-05T08:45:27.514Z,2.26
2023-03-05T08:46:17.572Z,2.29
2023-03-05T08:47:07.502Z,2.30
2023-03-05T08:47:57.510Z,2.33
2023-03-05T08:48:47.479Z,2.37
2023-03-05T08:49:37.491Z,2.40
2023-03-05T08:50:27.483Z,2.41
2023-03-05T08:51:17.466Z,2.44
2023-03-05T08:52:07.457Z,2.45
2023-03-05T08:52:57.432Z,2.51
2023-03-05T08:53:47.451Z,2.51
2023-03-05T08:54:37.441Z,2.56
2023-03-05T08:55:27.408Z,2.59
2023-03-05T08:56:17.422Z,2.62
2023-03-05T08:57:07.397Z,2.62
2023-03-05T08:57:57.393Z,2.65
2023-03-05T08:58:47.356Z,2.68
2023-03-05T08:59:37.379Z,2.71
2023-03-05T09:00:27.415Z,2.74
2023-03-05T09:01:17.396Z,2.77
2023-03-05T09:02:07.384Z,2.81
2023-03-05T09:02:57.372Z,2.86
2023-03-05T09:03:47.309Z,2.92
2023-03-05T09:04:37.353Z,2.95
2023-03-05T09:05:27.309Z,2.99
2023-03-05T09:06:17.293Z,3.02
2023-03-05T09:07:07.304Z,3.04
2023-03-05T09:07:57.287Z,3.07
2023-03-05T09:08:47.267Z,3.07
2023-03-05T09:09:37.279Z,3.10
2023-03-05T09:10:27.247Z,3.12
2023-03-05T09:11:17.255Z,3.13
2023-03-05T09:12:07.229Z,3.13
2023-03-05T09:12:57.237Z,3.16
2023-03-05T09:13:47.202Z,3.17
2023-03-05T09:14:37.217Z,3.20
2023-03-05T09:15:27.206Z,3.22
2023-03-05T09:16:17.218Z,3.22
2023-03-05T09:17:07.182Z,3.23
2023-03-05T09:17:57.174Z,3.26
2023-03-05T09:18:47.156Z,3.30
2023-03-05T09:19:37.131Z,3.30
2023-03-05T09:20:27.131Z,3.33
2023-03-05T09:21:17.139Z,3.35
2023-03-05T09:22:07.122Z,3.37
2023-03-05T09:22:57.117Z,3.37
2023-03-05T09:23:47.107Z,3.39
2023-03-05T09:24:37.106Z,3.42
2023-03-05T09:25:27.078Z,3.44
2023-03-05T09:26:17.084Z,3.46
2023-03-05T09:27:07.063Z,3.49
2023-03-05T09:27:57.050Z,3.49
2023-03-05T09:28:47.042Z,3.50
2023-03-05T09:29:37.041Z,3.52
2023-03-05T09:30:27.028Z,3.53
2023-03-05T09:31:17.076Z,3.57
2023-03-05T09:32:07.059Z,3.57
2023-03-05T09:32:57.019Z,3.59
2023-03-05T09:33:46.958Z,3.60
2023-03-05T09:34:37.011Z,3.63
2023-03-05T09:35:26.958Z,3.67
2023-03-05T09:36:16.969Z,3.68
2023-03-05T09:37:06.940Z,3.71
2023-03-05T09:37:56.959Z,3.71
2023-03-05T09:38:46.939Z,3.74
2023-03-05T09:39:36.947Z,3.75
2023-03-05T09:40:26.919Z,3.77
2023-03-05T09:41:16.916Z,3.81
2023-03-05T09:42:08.728Z,3.82
2023-03-05T09:42:56.930Z,3.86
2023-03-05T09:43:46.855Z,3.90
2023-03-05T09:44:36.899Z,3.92
2023-03-05T09:45:26.961Z,3.95
2023-03-05T09:46:16.996Z,3.96
2023-03-05T09:47:06.849Z,3.99
2023-03-05T09:47:56.836Z,4.00
2023-03-05T09:48:46.805Z,4.00
2023-03-05T09:49:36.818Z,4.06
2023-03-05T09:50:26.799Z,4.04
2023-03-05T09:51:16.816Z,4.08
2023-03-05T09:52:06.789Z,4.10
2023-03-05T09:52:56.781Z,4.13
2023-03-05T09:53:46.761Z,4.14
2023-03-05T09:54:36.759Z,4.17
2023-03-05T09:55:26.736Z,4.20
2023-03-05T09:56:16.738Z,4.21
2023-03-05T09:57:06.735Z,4.25
2023-03-05T09:57:56.718Z,4.28
2023-03-05T09:58:46.714Z,4.32
2023-03-05T09:59:36.719Z,4.34
2023-03-05T10:00:26.705Z,4.38
2023-03-05T10:01:16.694Z,4.42
2023-03-05T10:02:08.157Z,4.42
2023-03-05T10:02:56.726Z,4.46
2023-03-05T10:03:46.721Z,4.46
2023-03-05T10:04:36.662Z,4.47
2023-03-05T10:05:26.666Z,4.49
2023-03-05T10:06:16.656Z,4.53
2023-03-05T10:07:08.700Z,4.54
2023-03-05T10:07:56.634Z,4.56
2023-03-05T10:08:46.623Z,4.57
2023-03-05T10:09:37.053Z,4.59
2023-03-05T10:10:26.585Z,4.59
2023-03-05T10:11:16.584Z,4.61
2023-03-05T10:12:06.566Z,4.62
2023-03-05T10:12:56.578Z,4.67
2023-03-05T10:13:46.558Z,4.67
2023-03-05T10:14:36.532Z,4.68
2023-03-05T10:15:26.539Z,4.69
2023-03-05T10:16:16.586Z,4.68
2023-03-05T10:17:06.536Z,4.69
2023-03-05T10:17:56.508Z,4.71
2023-03-05T10:18:46.521Z,4.71
2023-03-05T10:19:36.469Z,4.74
2023-03-05T10:20:26.484Z,4.75
2023-03-05T10:21:16.480Z,4.77
2023-03-05T10:22:06.508Z,4.80
2023-03-05T10:22:56.479Z,4.83
2023-03-05T10:23:46.434Z,4.83
2023-03-05T10:24:36.435Z,4.84
2023-03-05T10:25:26.432Z,4.87
2023-03-05T10:26:16.407Z,4.87
2023-03-05T10:27:06.448Z,4.90
2023-03-05T10:27:56.402Z,4.91
2023-03-05T10:28:46.452Z,4.91
2023-03-05T10:29:36.374Z,4.91
2023-03-05T10:30:26.364Z,4.91
2023-03-05T10:31:16.377Z,4.90
2023-03-05T10:32:06.586Z,4.91
2023-03-05T10:32:56.342Z,4.91
2023-03-05T10:33:46.360Z,4.90
2023-03-05T10:34:36.324Z,4.90
2023-03-05T10:35:26.565Z,4.91
2023-03-05T10:36:16.305Z,4.94
2023-03-05T10:37:06.307Z,4.94
2023-03-05T10:37:56.280Z,4.96
2023-03-05T10:38:46.273Z,4.96
2023-03-05T10:39:36.285Z,4.96
2023-03-05T10:40:26.265Z,4.97
2023-03-05T10:41:16.236Z,4.97
2023-03-05T10:42:06.241Z,4.99
2023-03-05T10:42:56.233Z,5.02
2023-03-05T10:43:46.217Z,5.05
2023-03-05T10:44:36.236Z,5.06
2023-03-05T10:45:26.214Z,5.08
2023-03-05T10:46:16.221Z,5.11
2023-03-05T10:47:06.192Z,5.12
2023-03-05T10:47:56.183Z,5.14
2023-03-05T10:48:46.170Z,5.19
2023-03-05T10:49:36.150Z,5.20
2023-03-05T10:50:26.141Z,5.22
2023-03-05T10:51:16.150Z,5.24
2023-03-05T10:52:06.144Z,5.24
2023-03-05T10:52:56.118Z,5.26
2023-03-05T10:53:46.202Z,5.30
2023-03-05T10:54:36.133Z,5.33
2023-03-05T10:55:26.097Z,5.37
2023-03-05T10:56:16.092Z,5.37
2023-03-05T10:57:06.080Z,5.40
2023-03-05T10:57:56.070Z,5.40
2023-03-05T10:58:46.044Z,5.42
2023-03-05T10:59:36.068Z,5.44
2023-03-05T11:00:26.036Z,5.48
2023-03-05T11:01:16.051Z,5.51
2023-03-05T11:02:06.109Z,5.55
2023-03-05T11:02:56.187Z,5.56
2023-03-05T11:03:45.987Z,5.58
2023-03-05T11:04:36.006Z,5.58
2023-03-05T11:05:26.015Z,5.59